Time;durP1;ratioP1;P1;durP2;ratioP2;P2;SDS_P1;SDS_P2;PMS_P1;PMS_P2;Temp;Humidity;BMP_temperature;BMP_pressure;BME280_temperature;BME280_humidity;BME280_pressure;Samples;Min_cycle;Max_cycle;Signal;HPM_P1;HPM_P2
2021/10/26 00:02:08;;;;;;;6.77;6.07;;;5.40;99.90;;;6.28;89.45;98387.72;5200911;28;20217;-55
2021/10/26 00:04:41;;;;;;;6.73;6.07;;;5.40;99.90;;;6.24;88.79;98396.72;5205044;28;20258;-56
2021/10/26 00:07:15;;;;;;;7.03;6.33;;;5.30;99.90;;;6.16;90.07;98391.78;5204357;28;20204;-53
2021/10/26 00:09:49;;;;;;;6.47;5.87;;;5.30;99.90;;;6.15;89.75;98390.88;5205423;28;20601;-55
2021/10/26 00:12:22;;;;;;;7.20;6.60;;;5.30;99.90;;;6.13;90.40;98389.88;5203007;28;20304;-52
2021/10/26 00:14:55;;;;;;;7.10;6.60;;;5.30;99.90;;;6.11;89.80;98388.84;5203708;28;20748;-55
2021/10/26 00:17:28;;;;;;;6.90;6.20;;;5.30;99.90;;;6.10;90.24;98394.72;5203027;28;20202;-55
2021/10/26 00:20:01;;;;;;;6.07;5.60;;;5.30;99.90;;;6.05;89.39;98399.38;5204722;28;20772;-53
2021/10/26 00:22:35;;;;;;;6.07;5.57;;;5.20;99.90;;;6.09;89.65;98387.84;5197584;28;20666;-57
2021/10/26 00:25:10;;;;;;;6.73;5.77;;;5.20;99.90;;;6.11;89.02;98404.09;5205498;28;20632;-55
2021/10/26 00:27:43;;;;;;;7.50;6.90;;;5.20;99.90;;;6.06;89.03;98405.34;5195642;28;20201;-57
2021/10/26 00:30:16;;;;;;;7.73;7.03;;;5.20;99.90;;;5.96;90.14;98402.81;5203645;28;20189;-56
2021/10/26 00:32:49;;;;;;;8.00;7.20;;;5.20;99.90;;;5.98;90.19;98402.19;5204415;28;20217;-55
2021/10/26 00:35:27;;;;;;;8.23;7.53;;;5.20;99.90;;;6.11;90.68;98404.09;5201794;28;20194;-55
2021/10/26 00:38:01;;;;;;;7.80;7.20;;;5.30;99.90;;;6.24;91.17;98395.84;5204172;28;20677;-56
2021/10/26 00:40:36;;;;;;;7.97;6.70;;;5.50;99.90;;;6.22;91.42;98390.63;5201592;28;20681;-56
2021/10/26 00:43:09;;;;;;;8.10;7.40;;;5.50;99.90;;;6.28;92.09;98391.13;5203784;28;20605;-55
2021/10/26 00:45:42;;;;;;;7.97;7.27;;;5.50;99.90;;;6.33;91.26;98396.59;5202830;28;20539;-56
2021/10/26 00:48:16;;;;;;;6.83;6.33;;;5.50;99.90;;;6.40;90.36;98393.78;5204064;28;20201;-54
2021/10/26 00:50:49;;;;;;;6.60;6.20;;;5.40;99.90;;;6.36;89.26;98388.34;5203984;28;21747;-54
2021/10/26 00:53:22;;;;;;;6.30;5.80;;;5.30;99.90;;;6.22;89.36;98382.13;5203749;28;20304;-55
2021/10/26 00:55:57;;;;;;;6.97;5.80;;;5.30;99.90;;;6.16;90.04;98387.59;5203293;28;20563;-55
2021/10/26 00:58:30;;;;;;;6.20;5.67;;;5.30;99.90;;;6.11;89.74;98395.59;5202343;28;20297;-55
2021/10/26 01:01:03;;;;;;;6.10;5.50;;;5.20;99.90;;;6.02;90.06;98393.19;5201693;28;20221;-53
2021/10/26 01:03:37;;;;;;;5.90;5.50;;;5.20;99.90;;;6.05;89.94;98384.16;5202566;28;20459;-55
2021/10/26 01:06:11;;;;;;;6.57;6.07;;;5.20;99.90;;;6.07;89.68;98381.75;5203719;28;20292;-55
2021/10/26 01:08:44;;;;;;;6.20;5.80;;;5.20;99.90;;;6.06;90.39;98382.50;5202548;28;20292;-56
2021/10/26 01:11:19;;;;;;;6.50;5.77;;;5.30;99.90;;;6.09;89.99;98388.75;5203729;28;20689;-55
2021/10/26 01:13:53;;;;;;;6.40;5.80;;;5.30;99.90;;;6.12;89.86;98393.16;5203421;28;20208;-59
2021/10/26 01:16:26;;;;;;;6.50;5.90;;;5.30;99.90;;;6.11;90.41;98386.31;5199934;28;20611;-59
2021/10/26 01:18:59;;;;;;;8.13;5.57;;;5.30;99.90;;;6.14;90.43;98385.69;5206588;28;20209;-59
2021/10/26 01:21:34;;;;;;;6.60;6.07;;;5.40;99.90;;;6.18;90.23;98396.22;5207965;28;20236;-59
2021/10/26 01:24:07;;;;;;;6.60;6.10;;;5.30;99.90;;;6.20;89.94;98394.69;5206865;28;20193;-59
2021/10/26 01:26:40;;;;;;;7.07;6.47;;;5.30;99.90;;;6.27;89.51;98399.53;5207987;28;20210;-58
2021/10/26 01:29:13;;;;;;;6.97;6.47;;;5.40;99.90;;;6.28;89.41;98406.34;5203263;28;20206;-58
2021/10/26 01:31:46;;;;;;;6.63;6.13;;;5.30;99.90;;;6.25;89.50;98400.16;5207430;28;20663;-57
2021/10/26 01:34:20;;;;;;;6.40;5.90;;;5.30;99.90;;;6.31;89.04;98404.06;5205753;28;21195;-57
2021/10/26 01:36:59;;;;;;;6.50;6.00;;;5.30;99.90;;;6.28;89.89;98402.94;5206019;28;20204;-59
2021/10/26 01:39:32;;;;;;;6.40;5.87;;;5.40;99.90;;;6.33;89.30;98404.22;5205795;28;20206;-58
2021/10/26 01:42:06;;;;;;;7.30;6.50;;;5.40;99.90;;;6.34;89.50;98398.34;5204689;28;20222;-59
2021/10/26 01:44:39;;;;;;;7.43;6.83;;;5.50;99.90;;;6.39;90.19;98396.22;5206710;28;20206;-58
2021/10/26 01:47:13;;;;;;;6.93;6.33;;;5.50;99.90;;;6.42;89.60;98416.78;5206006;28;20197;-58
2021/10/26 01:49:46;;;;;;;8.27;7.57;;;5.50;99.90;;;6.52;90.00;98404.03;5206002;28;20391;-59
2021/10/26 01:52:20;;;;;;;7.90;7.17;;;5.60;99.90;;;6.58;89.95;98404.56;5207171;28;20220;-59
2021/10/26 01:54:53;;;;;;;7.50;6.90;;;5.70;99.90;;;6.51;89.97;98413.31;5207421;28;20284;-59
2021/10/26 01:57:27;;;;;;;7.87;7.07;;;5.70;99.90;;;6.58;89.62;98409.66;5205680;28;20205;-58
2021/10/26 02:00:04;;;;;;;8.90;8.10;;;5.70;99.90;;;6.55;89.53;98401.75;5205923;28;20202;-58
2021/10/26 02:02:37;;;;;;;7.93;7.30;;;5.70;99.90;;;6.63;88.96;98402.38;5203058;28;20232;-57
2021/10/26 02:05:10;;;;;;;8.17;7.47;;;5.70;99.90;;;6.59;89.55;98411.41;5202478;28;20713;-59
2021/10/26 02:07:45;;;;;;;8.80;8.00;;;5.70;99.90;;;6.68;89.52;98407.06;5206709;28;20297;-59
2021/10/26 02:10:20;;;;;;;9.93;9.03;;;5.80;99.90;;;6.72;88.71;98408.19;5207350;28;20292;-57
2021/10/26 02:12:53;;;;;;;8.77;7.97;;;5.80;99.90;;;6.65;89.09;98408.47;5206682;28;20218;-54
2021/10/26 02:15:26;;;;;;;8.43;7.63;;;5.70;99.90;;;6.65;88.58;98414.44;5202356;28;20305;-56
2021/10/26 02:17:59;;;;;;;7.93;7.20;;;5.70;99.90;;;6.63;88.28;98418.50;5205673;28;20721;-53
2021/10/26 02:20:33;;;;;;;7.47;6.77;;;5.70;99.90;;;6.55;88.66;98414.44;5206720;28;20309;-59
2021/10/26 02:23:07;;;;;;;7.60;7.00;;;5.70;99.90;;;6.56;89.25;98416.25;5207082;28;20305;-59
2021/10/26 02:25:40;;;;;;;7.43;6.83;;;5.70;99.90;;;6.61;89.71;98420.06;5206637;28;20197;-59
2021/10/26 02:28:13;;;;;;;7.90;7.30;;;5.80;99.90;;;6.65;89.85;98416.97;5204887;28;20208;-58
2021/10/26 02:30:46;;;;;;;7.77;7.17;;;5.90;99.90;;;6.74;90.23;98427.00;5206207;28;20289;-57
2021/10/26 02:33:19;;;;;;;8.90;8.03;;;5.90;99.90;;;6.81;90.06;98434.38;5205101;28;20224;-58
2021/10/26 02:35:52;;;;;;;9.10;8.30;;;6.00;99.90;;;6.89;89.91;98432.41;5205813;28;20289;-58
2021/10/26 02:38:27;;;;;;;8.43;7.63;;;6.10;99.90;;;6.99;89.64;98434.94;5206245;28;20206;-58
2021/10/26 02:41:00;;;;;;;8.80;8.07;;;6.20;99.90;;;7.03;89.27;98434.41;5205726;28;20220;-59
2021/10/26 02:43:33;;;;;;;8.97;8.27;;;6.20;99.90;;;7.03;89.89;98438.63;5205553;28;20212;-60
2021/10/26 02:46:07;;;;;;;9.63;8.73;;;6.20;99.90;;;6.99;91.68;98442.56;5205926;28;20244;-59
2021/10/26 02:48:42;;;;;;;10.00;9.00;;;6.30;99.90;;;7.01;92.94;98446.13;5202172;28;20210;-58
2021/10/26 02:51:16;;;;;;;8.87;7.90;;;6.30;99.90;;;6.95;93.65;98444.00;5205427;28;20219;-55
2021/10/26 02:53:51;;;;;;;9.23;8.43;;;6.30;99.90;;;6.92;95.04;98451.34;5206571;28;20198;-56
2021/10/26 02:56:24;;;;;;;9.37;8.47;;;6.30;99.90;;;6.84;95.31;98447.31;5206043;28;20217;-52
2021/10/26 02:58:57;;;;;;;9.77;8.83;;;6.20;99.90;;;6.88;94.32;98453.53;5204305;28;20204;-58
2021/10/26 03:01:30;;;;;;;10.13;9.23;;;6.20;99.90;;;6.90;93.56;98449.47;5200096;28;20230;-52
2021/10/26 03:04:04;;;;;;;10.10;9.17;;;6.10;99.90;;;6.87;94.23;98452.66;5203949;28;20320;-54
2021/10/26 03:06:37;;;;;;;11.03;9.93;;;6.10;99.90;;;6.84;94.21;98448.94;5206199;28;20293;-56
2021/10/26 03:09:12;;;;;;;11.00;9.93;;;6.10;99.90;;;6.77;94.43;98452.66;5205761;28;20204;-54
2021/10/26 03:11:45;;;;;;;10.73;9.83;;;6.10;99.90;;;6.73;95.21;98443.91;5206105;28;20300;-58
2021/10/26 03:14:18;;;;;;;12.07;10.93;;;6.00;99.90;;;6.65;96.06;98441.50;5204379;28;20663;-55
2021/10/26 03:16:51;;;;;;;10.30;9.40;;;6.00;99.90;;;6.58;96.44;98451.91;5204922;28;20204;-57
2021/10/26 03:19:26;;;;;;;11.13;10.13;;;5.90;99.90;;;6.57;96.55;98451.03;5205827;28;20193;-59
2021/10/26 03:21:59;;;;;;;10.77;9.67;;;6.00;99.90;;;6.62;96.54;98456.50;5214873;22;20221;-63
2021/10/26 03:24:34;;;;;;;11.57;10.47;;;5.90;99.90;;;6.60;97.14;98451.28;5203498;28;20288;-62
2021/10/26 03:27:07;;;;;;;11.00;10.00;;;6.00;99.90;;;6.60;97.81;98447.84;5194395;28;20202;-63
2021/10/26 03:29:40;;;;;;;12.73;11.53;;;6.00;99.90;;;6.63;97.77;98448.97;5202351;28;20216;-64
2021/10/26 03:32:13;;;;;;;12.43;11.27;;;6.00;99.90;;;6.62;97.82;98451.41;5192151;28;20217;-64
2021/10/26 03:34:46;;;;;;;11.93;10.83;;;5.90;99.90;;;6.53;98.54;98449.88;5195166;28;20209;-64
2021/10/26 03:37:19;;;;;;;12.20;11.03;;;5.80;99.90;;;6.53;98.44;98459.16;5195330;28;20193;-61
2021/10/26 03:39:55;;;;;;;12.27;11.13;;;5.80;99.90;;;6.52;98.66;98455.75;5186765;28;20329;-61
2021/10/26 03:42:28;;;;;;;13.57;12.17;;;5.90;99.90;;;6.55;99.66;98460.16;5189571;28;20236;-62
2021/10/26 03:45:01;;;;;;;12.20;11.00;;;5.90;99.90;;;6.54;100.00;98461.81;5202180;28;20581;-64
2021/10/26 03:47:39;;;;;;;11.73;10.73;;;6.00;99.90;;;6.63;100.00;98454.06;5203971;28;20211;-63
2021/10/26 03:50:14;;;;;;;12.87;11.57;;;6.00;99.90;;;6.65;100.00;98457.63;5198692;28;20293;-63
2021/10/26 03:52:47;;;;;;;13.00;11.80;;;6.00;99.90;;;6.67;100.00;98461.19;5205026;28;20214;-62
2021/10/26 03:55:21;;;;;;;11.93;10.93;;;6.00;99.90;;;6.72;100.00;98465.00;5212829;28;20201;-62
2021/10/26 03:57:54;;;;;;;11.17;10.30;;;6.10;99.90;;;6.80;100.00;98462.19;5211218;28;20204;-63
2021/10/26 04:00:28;;;;;;;13.23;12.03;;;6.10;99.90;;;6.85;100.00;98468.53;5202909;28;20216;-62
2021/10/26 04:03:01;;;;;;;13.43;12.23;;;6.10;99.90;;;6.87;100.00;98460.25;5197544;28;20309;-63
2021/10/26 04:05:45;;;;;;;14.23;12.83;;;6.20;99.90;;;6.86;100.00;98465.22;5205352;28;20244;-63
2021/10/26 04:08:24;;;;;;;13.70;12.40;;;6.10;99.90;;;6.86;100.00;98467.75;5200302;28;20190;-62
2021/10/26 04:11:01;;;;;;;14.30;12.90;;;6.10;99.90;;;6.87;100.00;98469.53;5198217;28;20320;-61
2021/10/26 04:13:34;;;;;;;14.83;13.53;;;6.10;99.90;;;6.89;100.00;98473.06;5211077;28;20331;-61
2021/10/26 04:16:07;;;;;;;14.70;13.30;;;6.20;99.90;;;6.96;100.00;98462.66;5204440;28;20293;-61
2021/10/26 04:18:41;;;;;;;12.73;11.43;;;6.20;99.90;;;6.98;100.00;98462.03;5195162;28;20209;-61
2021/10/26 04:21:17;;;;;;;12.47;11.27;;;6.20;99.90;;;7.01;100.00;98463.94;5198879;28;20731;-61
2021/10/26 04:23:50;;;;;;;11.40;10.33;;;6.30;99.90;;;7.07;100.00;98468.56;5209441;28;20577;-60
2021/10/26 04:26:25;;;;;;;11.27;10.23;;;6.30;99.90;;;7.04;100.00;98464.16;5197428;28;20642;-61
2021/10/26 04:28:58;;;;;;;11.20;10.10;;;6.30;99.90;;;7.05;100.00;98460.84;5196238;28;20194;-61
2021/10/26 04:31:31;;;;;;;11.57;10.47;;;6.30;99.90;;;7.09;100.00;98462.84;5206433;28;20228;-61
2021/10/26 04:34:04;;;;;;;11.53;10.53;;;6.40;99.90;;;7.14;100.00;98471.75;5203574;28;20197;-61
2021/10/26 04:36:37;;;;;;;13.27;11.97;;;6.40;99.90;;;7.16;100.00;98470.22;5202328;28;20204;-61
2021/10/26 04:39:10;;;;;;;12.17;10.87;;;6.40;99.90;;;7.17;100.00;98471.09;5198238;28;20202;-61
2021/10/26 04:41:45;;;;;;;11.97;10.87;;;6.40;99.90;;;7.18;100.00;98468.69;5206953;28;20233;-61
2021/10/26 04:44:18;;;;;;;14.43;13.03;;;6.40;99.90;;;7.21;100.00;98468.94;5202104;28;20665;-61
2021/10/26 04:46:51;;;;;;;15.30;13.80;;;6.40;99.90;;;7.19;100.00;98470.47;5198150;28;20203;-61
2021/10/26 04:49:24;;;;;;;15.97;14.37;;;6.40;99.90;;;7.20;100.00;98477.31;5202347;28;20199;-61
2021/10/26 04:51:57;;;;;;;14.13;12.80;;;6.40;99.90;;;7.19;100.00;98480.63;5208401;28;20704;-60
2021/10/26 04:54:31;;;;;;;15.27;13.67;;;6.40;99.90;;;7.20;100.00;98477.31;5200992;28;20297;-61
2021/10/26 04:57:05;;;;;;;14.83;13.43;;;6.40;99.90;;;7.21;100.00;98479.13;5197152;28;20206;-60
2021/10/26 04:59:38;;;;;;;14.07;12.67;;;6.40;99.90;;;7.26;100.00;98488.75;5198287;28;20197;-61
2021/10/26 05:02:11;;;;;;;14.87;13.57;;;6.50;99.90;;;7.27;100.00;98483.81;5202923;28;20222;-62
2021/10/26 05:04:45;;;;;;;14.60;13.07;;;6.50;99.90;;;7.32;100.00;98489.22;5198637;28;20206;-61
2021/10/26 05:07:18;;;;;;;14.00;12.57;;;6.50;99.90;;;7.29;100.00;98491.53;5198494;28;20312;-61
2021/10/26 05:09:51;;;;;;;14.43;12.93;;;6.40;99.90;;;7.30;100.00;98493.34;5212460;28;20208;-61
2021/10/26 05:12:25;;;;;;;14.47;13.07;;;6.50;99.90;;;7.36;100.00;98493.81;5192732;28;20599;-61
2021/10/26 05:14:58;;;;;;;15.47;14.07;;;6.50;99.90;;;7.38;100.00;98499.88;5204028;28;20668;-62
2021/10/26 05:17:32;;;;;;;15.83;14.27;;;6.60;99.90;;;7.36;100.00;98501.44;5193809;28;20293;-61
2021/10/26 05:20:07;;;;;;;15.93;14.43;;;6.60;99.90;;;7.38;100.00;98499.88;5195482;28;20567;-61
2021/10/26 05:22:40;;;;;;;16.27;14.67;;;6.60;99.90;;;7.42;100.00;98501.94;5197049;28;20225;-61
2021/10/26 05:25:13;;;;;;;16.33;14.57;;;6.70;99.90;;;7.47;100.00;98493.00;5204411;28;20267;-62
2021/10/26 05:27:48;;;;;;;15.50;13.90;;;6.70;99.90;;;7.49;100.00;98499.09;5194190;28;20220;-61
2021/10/26 05:30:21;;;;;;;15.27;13.67;;;6.70;99.90;;;7.54;100.00;98505.44;5197699;28;20206;-61
2021/10/26 05:32:55;;;;;;;15.87;14.40;;;6.70;99.90;;;7.60;100.00;98499.94;5202130;28;20304;-60
2021/10/26 05:35:28;;;;;;;18.13;15.80;;;6.70;99.90;;;7.57;100.00;98510.75;5209634;28;20201;-62
2021/10/26 05:38:01;;;;;;;18.43;16.10;;;6.80;99.90;;;7.59;100.00;98509.22;5202784;28;20289;-61
2021/10/26 05:40:34;;;;;;;16.00;14.50;;;6.80;99.90;;;7.62;100.00;98509.47;5210744;28;20206;-61
2021/10/26 05:43:09;;;;;;;16.60;14.93;;;6.80;99.90;;;7.65;100.00;98513.91;5203615;28;20218;-61
2021/10/26 05:45:45;;;;;;;18.63;15.80;;;6.80;99.90;;;7.63;100.00;98505.25;5208271;28;20375;-61
2021/10/26 05:48:20;;;;;;;16.90;15.27;;;6.80;99.90;;;7.58;100.00;98514.19;5204922;28;20292;-62
2021/10/26 05:50:53;;;;;;;18.27;16.57;;;6.70;99.90;;;7.56;100.00;98516.63;5209534;28;20237;-61
2021/10/26 05:53:26;;;;;;;18.27;16.67;;;6.70;99.90;;;7.53;100.00;98518.94;5199864;28;20534;-61
2021/10/26 05:55:59;;;;;;;20.20;18.30;;;6.70;99.90;;;7.58;100.00;98524.34;5193247;28;20285;-61
2021/10/26 05:58:33;;;;;;;20.87;18.93;;;6.70;99.90;;;7.58;100.00;98517.66;5203780;28;20198;-61
2021/10/26 06:01:06;;;;;;;21.00;17.73;;;6.70;99.90;;;7.55;100.00;98521.56;5205261;28;20578;-61
2021/10/26 06:03:40;;;;;;;17.67;15.70;;;6.80;99.90;;;7.58;100.00;98530.34;5200622;28;20245;-61
2021/10/26 06:06:13;;;;;;;17.87;16.20;;;6.80;99.90;;;7.63;100.00;98518.00;5203457;28;20284;-62
2021/10/26 06:08:47;;;;;;;18.63;16.80;;;6.80;99.90;;;7.65;100.00;98524.09;5203679;28;20649;-61
2021/10/26 06:11:23;;;;;;;19.87;17.50;;;6.80;99.90;;;7.61;100.00;98528.06;5202045;28;20239;-62
2021/10/26 06:14:02;;;;;;;18.87;16.90;;;6.80;99.90;;;7.65;100.00;98529.19;5202347;28;20198;-61
2021/10/26 06:16:37;;;;;;;20.53;18.43;;;6.80;99.90;;;7.66;100.00;98536.91;5203646;28;20199;-62
2021/10/26 06:19:11;;;;;;;19.70;17.73;;;6.90;99.90;;;7.70;100.00;98537.16;5205495;28;20202;-61
2021/10/26 06:21:44;;;;;;;21.43;19.10;;;6.90;99.90;;;7.70;100.00;98542.25;5206965;28;20284;-61
2021/10/26 06:24:17;;;;;;;19.70;17.90;;;6.90;99.90;;;7.70;100.00;98542.25;5202335;28;20228;-62
2021/10/26 06:26:50;;;;;;;20.70;18.57;;;6.90;99.90;;;7.74;100.00;98544.28;5196647;28;20205;-62
2021/10/26 06:29:24;;;;;;;19.10;17.10;;;6.90;99.90;;;7.71;100.00;98539.84;5205255;28;20210;-61
2021/10/26 06:31:57;;;;;;;20.37;18.43;;;6.80;99.90;;;7.77;100.00;98539.44;5195978;28;20213;-61
2021/10/26 06:34:30;;;;;;;19.83;18.03;;;6.90;99.90;;;7.78;100.00;98541.19;5193776;28;20204;-62
2021/10/26 06:37:04;;;;;;;19.97;18.07;;;6.80;99.90;;;7.77;100.00;98555.59;5213295;28;20312;-62
2021/10/26 06:39:37;;;;;;;19.17;17.30;;;6.80;99.90;;;7.83;100.00;98560.28;5191199;28;20300;-61
2021/10/26 06:42:10;;;;;;;20.97;18.17;;;6.90;99.90;;;7.85;100.00;98558.75;5192814;28;20229;-61
2021/10/26 06:44:45;;;;;;;20.67;18.27;;;6.90;99.90;;;7.86;100.00;98560.50;5194474;28;20462;-62
2021/10/26 06:47:19;;;;;;;18.70;16.83;;;7.00;99.90;;;7.86;100.00;98565.59;5196828;28;20563;-61
2021/10/26 06:49:52;;;;;;;20.70;18.60;;;7.00;99.90;;;7.89;100.00;98571.81;5194050;28;20285;-61
2021/10/26 06:52:25;;;;;;;18.53;16.57;;;7.10;99.90;;;7.94;100.00;98586.56;5206466;28;20596;-61
2021/10/26 06:55:00;;;;;;;17.53;15.73;;;7.10;99.90;;;7.95;100.00;98586.69;5218821;28;20198;-61
2021/10/26 06:57:33;;;;;;;16.90;15.30;;;7.10;99.90;;;7.98;100.00;98586.91;5200519;28;20216;-62
2021/10/26 07:00:11;;;;;;;18.77;16.97;;;7.10;99.90;;;8.00;100.00;98585.38;5213805;28;20198;-61
2021/10/26 07:02:48;;;;;;;17.93;16.10;;;7.10;99.90;;;8.08;100.00;98594.53;5210722;28;20228;-61
2021/10/26 07:05:24;;;;;;;18.33;16.33;;;7.20;99.90;;;8.13;100.00;98597.44;5209470;28;20212;-61
2021/10/26 07:07:57;;;;;;;18.20;16.30;;;7.20;99.90;;;8.17;100.00;98598.56;5213162;28;20198;-61
2021/10/26 07:10:30;;;;;;;16.70;15.03;;;7.20;99.90;;;8.20;100.00;98609.88;5202906;28;20362;-61
2021/10/26 07:13:04;;;;;;;18.77;16.77;;;7.30;99.90;;;8.26;100.00;98599.28;5202225;28;20202;-61
2021/10/26 07:15:39;;;;;;;18.23;16.40;;;7.30;99.90;;;8.22;100.00;98602.34;5210760;28;20283;-62
2021/10/26 07:18:12;;;;;;;21.50;19.13;;;7.30;99.90;;;8.31;100.00;98611.59;5215984;28;20676;-61
2021/10/26 07:20:45;;;;;;;21.33;18.90;;;7.30;99.90;;;8.38;100.00;98605.31;5204626;28;20591;-61
2021/10/26 07:23:18;;;;;;;23.87;21.60;;;7.40;99.90;;;8.40;100.00;98608.03;5195208;28;20225;-61
2021/10/26 07:25:51;;;;;;;23.17;20.97;;;7.30;99.90;;;8.40;100.00;98614.00;5193300;28;20779;-61
2021/10/26 07:28:25;;;;;;;27.97;21.43;;;7.40;99.90;;;8.43;100.00;98621.88;5204110;28;20293;-61
2021/10/26 07:30:59;;;;;;;39.47;22.23;;;7.40;99.90;;;8.46;100.00;98627.19;5205886;28;20691;-61
2021/10/26 07:33:33;;;;;;;38.23;22.50;;;7.50;99.90;;;8.46;100.00;98619.56;5214036;28;20255;-61
2021/10/26 07:36:08;;;;;;;40.13;21.33;;;7.50;99.90;;;8.50;100.00;98619.03;5203164;28;20195;-62
2021/10/26 07:38:41;;;;;;;37.77;20.63;;;7.50;99.90;;;8.60;100.00;98622.28;5199591;28;20199;-61
2021/10/26 07:41:15;;;;;;;27.10;20.53;;;7.70;99.90;;;8.70;100.00;98625.69;5205401;28;20230;-62
2021/10/26 07:43:48;;;;;;;21.73;19.27;;;7.60;99.90;;;8.67;100.00;98621.97;5209215;28;20224;-61
2021/10/26 07:46:23;;;;;;;20.77;18.57;;;7.70;99.90;;;8.67;100.00;98629.63;5197012;28;20198;-61
2021/10/26 07:48:56;;;;;;;20.43;18.33;;;7.70;99.90;;;8.67;100.00;98632.19;5198284;28;20209;-61
2021/10/26 07:51:29;;;;;;;21.53;18.23;;;7.70;99.90;;;8.71;100.00;98627.44;5191466;28;20800;-62
2021/10/26 07:54:02;;;;;;;22.07;19.77;;;7.80;99.90;;;8.77;100.00;98629.56;5195833;28;20885;-61
2021/10/26 07:56:35;;;;;;;22.17;19.80;;;7.80;99.90;;;8.85;100.00;98633.59;5198782;28;20729;-62
2021/10/26 07:59:08;;;;;;;25.53;19.87;;;7.90;99.90;;;9.00;100.00;98632.19;5199501;28;20204;-62
2021/10/26 08:01:44;;;;;;;20.80;18.50;;;8.10;99.90;;;9.13;100.00;98633.09;5202704;28;20594;-62
2021/10/26 08:04:17;;;;;;;22.10;19.80;;;8.20;99.90;;;9.33;100.00;98637.16;5201817;28;20205;-61
2021/10/26 08:06:51;;;;;;;22.70;19.93;;;8.30;99.90;;;9.52;100.00;98649.63;5211445;28;20203;-61
2021/10/26 08:09:24;;;;;;;20.60;18.17;;;8.50;99.90;;;9.68;100.00;98638.09;5209522;28;20202;-61
2021/10/26 08:11:57;;;;;;;19.03;17.23;;;8.60;99.90;;;9.66;100.00;98641.31;5207220;28;20222;-61
2021/10/26 08:14:30;;;;;;;18.97;17.07;;;8.60;99.90;;;9.70;100.00;98635.66;5204234;28;20204;-61
2021/10/26 08:17:05;;;;;;;20.47;18.17;;;8.60;99.90;;;9.65;100.00;98637.00;5208577;28;20824;-61
2021/10/26 08:19:38;;;;;;;20.02;18.05;;;8.60;99.90;;;9.79;100.00;98638.88;5197372;28;20300;-61
2021/10/26 08:22:15;;;;;;;20.55;18.27;;;8.70;99.90;;;9.84;100.00;98635.00;5201495;28;20225;-61
2021/10/26 08:24:51;;;;;;;20.00;18.10;;;8.80;99.90;;;9.94;100.00;98639.09;5199987;28;20213;-61
2021/10/26 08:27:24;;;;;;;19.48;17.52;;;9.00;99.90;;;10.19;100.00;98640.84;5206618;28;20198;-62
2021/10/26 08:30:07;;;;;;;21.75;19.70;;;9.20;99.90;;;10.47;100.00;98638.59;5200870;28;20741;-62
2021/10/26 08:32:48;;;;;;;21.77;19.70;;;9.60;99.90;;;10.74;100.00;98631.97;5204369;28;20278;-62
2021/10/26 08:35:25;;;;;;;21.10;19.00;;;9.80;99.90;;;11.05;100.00;98634.94;5206089;28;20217;-61
2021/10/26 08:38:02;;;;;;;20.88;18.27;;;10.10;99.90;;;11.36;100.00;98631.84;5200273;28;20212;-62
2021/10/26 08:40:46;;;;;;;22.25;19.80;;;10.40;99.90;;;11.70;100.00;98625.63;5205184;28;20204;-62
2021/10/26 08:43:21;;;;;;;21.33;19.17;;;10.70;99.90;;;12.13;100.00;98625.84;5202528;28;20288;-62
2021/10/26 08:45:58;;;;;;;19.42;17.30;;;11.10;99.90;;;12.25;100.00;98630.84;5196761;28;20845;-62
2021/10/26 08:48:36;;;;;;;18.85;16.85;;;10.90;99.90;;;12.50;100.00;98630.69;5200531;28;20198;-62
2021/10/26 08:51:09;;;;;;;17.83;15.98;;;11.20;99.90;;;12.75;100.00;98624.50;5207101;28;20236;-62
2021/10/26 08:53:44;;;;;;;18.33;16.42;;;11.50;99.90;;;12.93;100.00;98623.03;5201971;28;20293;-62
2021/10/26 08:56:17;;;;;;;17.27;15.50;;;11.60;99.90;;;12.93;100.00;98625.59;5192871;28;20202;-62
2021/10/26 08:58:52;;;;;;;16.23;14.52;;;11.50;99.90;;;12.74;100.00;98622.75;5198722;28;20198;-62
2021/10/26 09:01:25;;;;;;;16.52;14.95;;;11.30;99.90;;;12.67;100.00;98623.16;5209213;28;20229;-62
2021/10/26 09:04:11;;;;;;;15.95;14.35;;;11.40;99.90;;;12.87;100.00;98627.81;5204654;28;20254;-62
2021/10/26 09:06:47;;;;;;;15.48;13.85;;;11.70;99.90;;;13.00;100.00;98630.31;5205539;28;20198;-61
2021/10/26 09:09:23;;;;;;;16.60;14.93;;;11.80;99.90;;;13.13;100.00;98620.78;5185022;28;20678;-62
2021/10/26 09:17:54;;;;;;;16.90;14.90;;;11.70;99.90;;;13.18;99.13;98609.13;5201901;28;20942;-62
2021/10/26 09:20:31;;;;;;;17.52;15.23;;;11.60;99.90;;;13.09;99.17;98601.75;5214492;28;20690;-62
2021/10/26 09:23:05;;;;;;;15.40;13.90;;;11.40;99.90;;;13.02;98.73;98597.94;5217556;28;20203;-62
2021/10/26 09:25:40;;;;;;;16.13;14.52;;;11.50;99.90;;;13.04;100.00;98598.91;5199400;28;20313;-62
2021/10/26 09:28:19;;;;;;;15.98;14.15;;;11.50;99.90;;;13.14;100.00;98602.03;5207385;28;20194;-63
2021/10/26 09:31:05;;;;;;;16.15;14.57;;;11.80;99.90;;;13.26;100.00;98608.81;5201412;28;20214;-63
2021/10/26 09:33:40;;;;;;;19.88;16.88;;;11.90;99.90;;;13.31;99.60;98601.38;5204016;28;20238;-63
2021/10/26 09:36:29;;;;;;;17.48;15.65;;;12.00;99.90;;;13.58;100.00;98606.31;5205351;28;20201;-63
2021/10/26 09:39:19;;;;;;;14.77;13.32;;;12.30;99.90;;;13.81;96.31;98600.81;5199458;28;20198;-63
2021/10/26 09:42:05;;;;;;;13.70;12.18;;;12.40;99.90;;;13.91;92.96;98602.22;5206377;28;20224;-63
2021/10/26 09:44:46;;;;;;;13.45;12.23;;;12.50;99.90;;;13.98;94.55;98605.19;5213580;28;20636;-63
2021/10/26 09:47:25;;;;;;;14.02;12.73;;;12.60;99.90;;;14.05;92.76;98603.88;5204920;28;20606;-63
2021/10/26 09:50:01;;;;;;;12.38;11.27;;;12.60;99.90;;;14.20;92.48;98614.09;5201749;28;20239;-63
2021/10/26 09:52:39;;;;;;;12.23;11.18;;;12.90;99.90;;;14.28;91.92;98609.38;5203425;28;20727;-63
2021/10/26 09:55:16;;;;;;;11.73;10.55;;;12.90;99.90;;;14.35;91.33;98607.22;5211473;28;20190;-63
2021/10/26 09:57:57;;;;;;;11.60;10.48;;;13.10;99.90;;;14.40;90.90;98610.06;5203543;28;20645;-62
2021/10/26 10:00:34;;;;;;;11.18;10.05;;;13.20;99.90;;;14.52;91.28;98605.59;5206080;28;20297;-63
2021/10/26 10:03:11;;;;;;;11.07;9.98;;;13.30;99.90;;;14.70;88.21;98603.09;5201361;28;20702;-62
2021/10/26 10:05:52;;;;;;;10.18;9.18;;;13.50;99.90;;;14.78;84.56;98606.09;5209950;28;20316;-62
2021/10/26 10:08:33;;;;;;;10.27;9.27;;;13.50;99.90;;;14.78;86.83;98606.97;5203504;28;20204;-62
2021/10/26 10:11:13;;;;;;;9.40;8.60;;;13.60;99.90;;;14.86;84.42;98604.81;5214609;28;20227;-63
2021/10/26 10:13:50;;;;;;;8.05;7.22;;;13.80;99.90;;;14.95;86.28;98606.97;5206192;28;20570;-63
2021/10/26 10:16:25;;;;;;;8.07;7.28;;;13.90;99.90;;;15.11;82.84;98609.53;5201998;28;20284;-63
2021/10/26 10:18:59;;;;;;;7.43;6.75;;;14.00;99.90;;;15.11;82.38;98606.97;5208397;28;20564;-63
2021/10/26 10:21:32;;;;;;;6.85;6.15;;;14.10;99.90;;;15.14;82.95;98608.78;5208697;28;20239;-63
2021/10/26 10:24:07;;;;;;;6.63;6.00;;;14.20;99.90;;;15.23;82.18;98599.84;5208522;28;20572;-62
2021/10/26 10:26:41;;;;;;;6.88;6.20;;;14.30;99.90;;;15.36;80.62;98601.34;5204858;28;20213;-63
2021/10/26 10:29:14;;;;;;;6.22;5.63;;;14.50;99.90;;;15.43;79.97;98597.41;5210308;28;20221;-63
2021/10/26 10:31:50;;;;;;;6.40;5.90;;;14.60;99.90;;;15.64;79.54;98598.44;5210325;28;20228;-63
2021/10/26 10:34:23;;;;;;;6.45;5.25;;;14.60;99.90;;;15.77;77.52;98600.88;5211932;28;20327;-63
2021/10/26 10:37:00;;;;;;;7.15;5.40;;;14.70;99.90;;;15.88;77.82;98597.91;5207888;28;20198;-63
2021/10/26 10:39:34;;;;;;;5.85;5.07;;;14.80;99.90;;;15.84;76.37;98590.84;5206927;28;20208;-63
2021/10/26 10:42:18;;;;;;;7.75;5.03;;;14.80;99.90;;;15.88;77.46;98590.16;5207022;28;20231;-63
2021/10/26 10:44:53;;;;;;;5.90;5.25;;;14.80;99.90;;;15.96;77.19;98592.28;5207718;28;20196;-63
2021/10/26 10:47:40;;;;;;;6.35;4.13;;;14.90;99.90;;;16.04;74.66;98591.78;5198647;28;20194;-63
2021/10/26 10:50:37;;;;;;;4.10;3.72;;;14.80;99.90;;;15.93;73.59;98597.31;5200048;28;20208;-63
2021/10/26 10:53:19;;;;;;;4.80;3.67;;;14.70;99.90;;;15.82;75.20;98597.59;5201366;28;20236;-63
2021/10/26 10:56:13;;;;;;;5.38;3.85;;;14.60;99.90;;;15.72;74.62;98597.16;5198790;28;20212;-63